createdAt,value
2023-03-22T00:00:01.870Z,77.18
2023-03-22T00:02:33.342Z,79.72
2023-03-22T00:05:00.541Z,79.78
2023-03-22T00:07:28.160Z,78.13
2023-03-22T00:09:55.507Z,80.70
2023-03-22T00:12:22.430Z,76.65
2023-03-22T00:14:49.679Z,80.65
2023-03-22T00:17:16.774Z,78.13
2023-03-22T00:19:45.242Z,72.50
2023-03-22T00:22:14.878Z,76.50
2023-03-22T00:24:41.910Z,76.65
2023-03-22T00:27:08.924Z,70.07
2023-03-22T00:29:36.049Z,69.88
2023-03-22T00:32:04.434Z,69.38
2023-03-22T00:34:32.910Z,77.15
2023-03-22T00:37:00.327Z,70.35
2023-03-22T00:39:27.393Z,70.93
2023-03-22T00:41:54.394Z,75.80
2023-03-22T00:44:21.498Z,71.10
2023-03-22T00:46:48.464Z,70.32
2023-03-22T00:49:15.530Z,70.53
2023-03-22T00:51:42.592Z,69.82
2023-03-22T00:54:09.726Z,78.65
2023-03-22T00:56:37.779Z,68.72
2023-03-22T00:59:13.969Z,71.40
2023-03-22T01:01:43.111Z,71.35
2023-03-22T01:04:15.469Z,74.82
2023-03-22T01:06:42.418Z,73.80
2023-03-22T01:09:15.003Z,76.50
2023-03-22T01:11:44.141Z,71.40
2023-03-22T01:14:14.121Z,74.60
2023-03-22T01:16:41.305Z,70.93
2023-03-22T01:19:08.963Z,76.22
2023-03-22T01:21:35.996Z,71.68
2023-03-22T01:24:03.454Z,78.50
2023-03-22T01:26:30.695Z,72.57
2023-03-22T01:28:57.842Z,72.15
2023-03-22T01:31:25.025Z,67.10
2023-03-22T01:33:52.168Z,69.38
2023-03-22T01:36:21.217Z,70.45
2023-03-22T01:38:48.273Z,67.65
2023-03-22T01:41:17.121Z,68.55
2023-03-22T01:43:44.815Z,72.15
2023-03-22T01:46:12.413Z,68.95
2023-03-22T01:48:46.120Z,67.05
2023-03-22T01:51:18.700Z,69.35
2023-03-22T01:54:32.078Z,68.57
2023-03-22T01:57:03.774Z,67.47
2023-03-22T01:59:40.207Z,72.47
2023-03-22T02:02:19.387Z,71.45
2023-03-22T02:04:58.272Z,63.43
2023-03-22T02:07:28.764Z,69.38
2023-03-22T02:09:57.015Z,64.47
2023-03-22T02:12:40.901Z,67.88
2023-03-22T02:15:32.669Z,75.57
2023-03-22T02:18:39.163Z,62.67
2023-03-22T02:21:44.993Z,76.53
2023-03-22T02:24:30.475Z,70.32
2023-03-22T02:27:26.648Z,68.38
2023-03-22T02:30:28.447Z,70.25
2023-03-22T02:33:17.574Z,70.40
2023-03-22T02:36:11.366Z,75.93
2023-03-22T02:39:05.707Z,71.72
2023-03-22T02:42:00.437Z,76.35
2023-03-22T02:45:04.125Z,69.38
2023-03-22T02:47:55.331Z,73.75
2023-03-22T02:50:29.872Z,74.93
2023-03-22T02:53:29.054Z,72.35
2023-03-22T02:56:09.848Z,73.13
2023-03-22T02:58:50.527Z,77.93
2023-03-22T03:01:27.456Z,76.30
2023-03-22T03:03:59.406Z,77.90
2023-03-22T03:06:32.504Z,78.60
2023-03-22T03:09:02.803Z,77.63
2023-03-22T03:13:59.685Z,78.18
2023-03-22T03:16:31.072Z,78.63
2023-03-22T03:19:11.745Z,76.95
2023-03-22T03:21:45.554Z,78.55
2023-03-22T03:24:23.403Z,77.70
2023-03-22T03:27:13.532Z,75.40
2023-03-22T03:29:50.848Z,85.88
2023-03-22T03:32:25.783Z,83.05
2023-03-22T03:35:07.830Z,85.38
2023-03-22T03:37:39.925Z,90.63
2023-03-22T03:40:13.015Z,89.32
2023-03-22T03:42:46.739Z,85.43
2023-03-22T03:45:15.558Z,93.35
2023-03-22T03:47:44.844Z,96.63
2023-03-22T03:50:15.948Z,93.00
2023-03-22T03:52:43.399Z,105.10
2023-03-22T03:55:10.937Z,90.53
2023-03-22T03:57:37.947Z,87.55
2023-03-22T04:00:06.009Z,100.43
2023-03-22T04:03:02.649Z,92.25
2023-03-22T04:05:50.700Z,88.65
2023-03-22T04:08:17.842Z,104.55
2023-03-22T04:10:50.873Z,105.32
2023-03-22T04:13:21.762Z,96.20
2023-03-22T04:15:53.758Z,92.50
2023-03-22T04:18:21.432Z,105.07
2023-03-22T04:20:49.615Z,103.30
2023-03-22T04:23:17.270Z,104.10
2023-03-22T04:25:50.368Z,86.28
2023-03-22T04:28:24.182Z,90.93
2023-03-22T04:30:52.556Z,103.40
2023-03-22T04:33:39.596Z,101.40
2023-03-22T04:36:36.625Z,89.38
2023-03-22T04:39:19.300Z,95.68
2023-03-22T04:41:55.332Z,120.78
2023-03-22T04:44:22.915Z,99.38
2023-03-22T04:46:51.110Z,101.28
2023-03-22T04:49:18.334Z,105.78
2023-03-22T04:51:45.699Z,99.78
2023-03-22T04:56:53.087Z,92.35
2023-03-22T04:59:22.632Z,110.45
2023-03-22T05:01:51.763Z,116.35
2023-03-22T05:04:22.689Z,121.78
2023-03-22T05:06:55.462Z,111.03
2023-03-22T05:09:28.350Z,120.78
2023-03-22T05:11:56.004Z,117.22
2023-03-22T05:14:37.636Z,96.07
2023-03-22T05:17:06.062Z,110.82
2023-03-22T05:19:36.636Z,125.05
2023-03-22T05:22:03.745Z,94.95
2023-03-22T05:24:46.407Z,90.03
2023-03-22T05:27:31.826Z,117.78
2023-03-22T05:30:17.797Z,97.10
2023-03-22T05:32:59.928Z,106.30
2023-03-22T05:35:27.721Z,115.75
2023-03-22T05:37:57.252Z,104.53
2023-03-22T05:40:27.645Z,128.55
2023-03-22T05:42:55.376Z,111.35
2023-03-22T05:45:26.282Z,97.07
2023-03-22T05:48:16.384Z,121.95
2023-03-22T05:50:43.617Z,116.35
2023-03-22T05:53:11.798Z,116.15
2023-03-22T05:56:05.470Z,99.38
2023-03-22T05:58:34.079Z,97.57
2023-03-22T06:01:08.560Z,92.38
2023-03-22T06:03:48.655Z,100.13
2023-03-22T06:06:28.264Z,114.95
2023-03-22T06:09:16.459Z,119.45
2023-03-22T06:11:45.768Z,109.97
2023-03-22T06:14:14.903Z,122.73
2023-03-22T06:17:05.313Z,112.22
2023-03-22T06:19:32.537Z,111.85
2023-03-22T06:22:02.610Z,122.03
2023-03-22T06:24:31.405Z,122.72
2023-03-22T06:26:58.498Z,98.68
2023-03-22T06:29:25.690Z,113.88
2023-03-22T06:31:54.873Z,96.20
2023-03-22T06:34:21.871Z,113.70
2023-03-22T06:36:49.049Z,169.95
2023-03-22T06:39:23.937Z,121.10
2023-03-22T06:41:51.388Z,136.15
2023-03-22T06:44:18.777Z,147.25
2023-03-22T06:46:52.199Z,93.82
2023-03-22T06:49:37.214Z,116.47
2023-03-22T06:52:04.530Z,107.22
2023-03-22T06:54:32.465Z,99.65
2023-03-22T06:56:59.539Z,124.40
2023-03-22T06:59:26.858Z,102.55
2023-03-22T07:01:53.898Z,104.18
2023-03-22T07:04:21.346Z,120.22
2023-03-22T07:06:50.105Z,111.13
2023-03-22T07:09:17.866Z,92.32
2023-03-22T07:11:47.249Z,111.32
2023-03-22T07:14:18.187Z,134.68
2023-03-22T07:17:08.516Z,104.40
2023-03-22T07:19:35.766Z,95.05
2023-03-22T07:22:07.136Z,102.50
2023-03-22T07:24:38.655Z,125.30
2023-03-22T07:27:09.439Z,104.35
2023-03-22T07:29:36.598Z,91.53
2023-03-22T07:32:03.696Z,101.75
2023-03-22T07:34:44.167Z,107.55
2023-03-22T07:37:16.532Z,107.05
2023-03-22T07:39:43.827Z,103.25
2023-03-22T07:42:10.903Z,89.35
2023-03-22T07:45:07.513Z,92.75
2023-03-22T07:47:43.371Z,111.40
2023-03-22T07:50:33.419Z,88.10
2023-03-22T07:53:04.482Z,104.88
2023-03-22T07:55:31.875Z,88.93
2023-03-22T07:57:59.080Z,105.93
2023-03-22T08:00:26.360Z,95.93
2023-03-22T08:03:16.232Z,82.00
2023-03-22T08:06:04.481Z,69.00
2023-03-22T08:08:31.552Z,75.90
2023-03-22T08:10:59.152Z,69.78
2023-03-22T08:13:26.982Z,73.65
2023-03-22T08:15:54.385Z,65.97
2023-03-22T08:18:21.879Z,65.50
2023-03-22T08:20:56.906Z,61.25
2023-03-22T08:23:40.384Z,56.90
2023-03-22T08:26:27.521Z,61.30
2023-03-22T08:28:57.414Z,58.88
2023-03-22T08:31:24.496Z,59.72
2023-03-22T08:33:51.626Z,60.92
2023-03-22T08:36:21.793Z,67.15
2023-03-22T08:38:58.845Z,66.90
2023-03-22T08:41:38.793Z,69.78
2023-03-22T08:44:06.624Z,66.88
2023-03-22T08:46:35.416Z,65.32
2023-03-22T08:49:03.544Z,71.97
2023-03-22T08:51:41.688Z,72.28
2023-03-22T08:54:36.680Z,68.68
2023-03-22T08:57:04.388Z,68.93
2023-03-22T08:59:52.576Z,69.63
2023-03-22T09:02:36.410Z,61.42
2023-03-22T09:05:04.090Z,69.47
2023-03-22T09:07:31.913Z,72.70
2023-03-22T09:10:06.581Z,64.00
2023-03-22T09:12:37.350Z,62.03
2023-03-22T09:15:06.392Z,60.22
2023-03-22T09:17:34.719Z,55.28
2023-03-22T09:20:12.549Z,53.22
2023-03-22T09:22:42.755Z,57.97
2023-03-22T09:25:12.988Z,50.90
2023-03-22T09:27:43.040Z,54.58
2023-03-22T09:30:11.377Z,44.50
2023-03-22T09:32:40.876Z,39.13
2023-03-22T09:35:10.162Z,34.60
2023-03-22T09:37:49.622Z,33.83
2023-03-22T09:40:17.839Z,30.17
2023-03-22T09:42:55.293Z,30.02
2023-03-22T09:45:32.366Z,33.60
2023-03-22T09:48:00.292Z,31.08
2023-03-22T09:50:31.372Z,31.20
2023-03-22T09:52:59.489Z,30.92
2023-03-22T09:55:37.784Z,30.90
2023-03-22T09:58:13.703Z,31.55
2023-03-22T10:00:46.160Z,32.25
2023-03-22T10:03:34.710Z,33.85
2023-03-22T10:06:18.492Z,31.13
2023-03-22T10:08:54.500Z,32.17
2023-03-22T10:11:26.216Z,33.25
2023-03-22T10:13:57.777Z,32.92
2023-03-22T10:16:29.780Z,34.13
2023-03-22T10:19:21.736Z,35.13
2023-03-22T10:21:52.129Z,29.90
2023-03-22T10:26:51.509Z,33.65
2023-03-22T10:29:27.568Z,31.42
2023-03-22T10:31:55.158Z,31.45
2023-03-22T10:34:28.193Z,31.40
2023-03-22T10:36:55.977Z,35.28
2023-03-22T10:39:38.562Z,31.00
2023-03-22T10:42:16.157Z,29.75
2023-03-22T10:44:58.074Z,28.85
2023-03-22T10:47:35.634Z,32.63
2023-03-22T10:50:07.441Z,29.95
2023-03-22T10:52:51.601Z,27.80
2023-03-22T10:55:18.847Z,25.25
2023-03-22T10:57:57.010Z,28.45
2023-03-22T11:00:25.667Z,28.13
2023-03-22T11:02:58.734Z,29.13
2023-03-22T11:05:30.297Z,26.55
2023-03-22T11:07:59.041Z,26.85
2023-03-22T11:10:34.848Z,27.08
2023-03-22T11:13:08.002Z,28.33
2023-03-22T11:15:54.717Z,28.23
2023-03-22T11:18:22.399Z,28.52
2023-03-22T11:20:57.335Z,27.30
2023-03-22T11:23:25.630Z,25.30
2023-03-22T11:25:56.689Z,23.45
2023-03-22T11:28:34.376Z,24.15
2023-03-22T11:31:08.666Z,22.63
2023-03-22T11:33:37.069Z,24.63
2023-03-22T11:36:16.408Z,20.75
2023-03-22T11:38:45.578Z,20.52
2023-03-22T11:41:22.972Z,21.83
2023-03-22T11:44:01.957Z,21.50
2023-03-22T11:46:30.556Z,20.88
2023-03-22T11:49:02.053Z,21.95
2023-03-22T11:51:33.679Z,25.08
2023-03-22T11:54:03.774Z,22.50
2023-03-22T11:56:31.273Z,22.80
2023-03-22T11:59:00.269Z,25.52
2023-03-22T12:01:43.500Z,21.42
2023-03-22T12:04:17.812Z,22.00
2023-03-22T12:06:45.203Z,19.70
2023-03-22T12:09:30.534Z,21.13
2023-03-22T12:12:01.128Z,20.20
2023-03-22T12:14:39.698Z,19.48
2023-03-22T12:17:14.658Z,19.60
2023-03-22T12:20:09.316Z,21.65
2023-03-22T12:22:41.996Z,20.77
2023-03-22T12:25:17.888Z,22.70
2023-03-22T12:27:48.691Z,20.40
2023-03-22T12:30:21.221Z,21.33
2023-03-22T12:32:59.690Z,24.02
2023-03-22T12:35:31.672Z,18.55
2023-03-22T12:38:01.862Z,20.80
2023-03-22T12:40:34.881Z,18.88
2023-03-22T12:43:01.883Z,18.58
2023-03-22T12:45:32.020Z,17.67
2023-03-22T12:48:07.246Z,19.15
2023-03-22T12:50:46.167Z,17.23
2023-03-22T12:53:19.274Z,17.48
2023-03-22T12:55:48.460Z,17.48
2023-03-22T12:58:23.988Z,17.30
2023-03-22T13:00:58.959Z,19.60
2023-03-22T13:03:29.072Z,15.70
2023-03-22T13:06:03.733Z,20.17
2023-03-22T13:09:09.339Z,18.08
2023-03-22T13:11:36.731Z,17.98
2023-03-22T13:14:03.892Z,18.48
2023-03-22T13:17:07.003Z,21.85
2023-03-22T13:19:37.714Z,17.42
2023-03-22T13:22:28.556Z,16.83
2023-03-22T13:25:29.306Z,17.13
2023-03-22T13:28:03.661Z,17.67
2023-03-22T13:30:35.647Z,20.42
2023-03-22T13:33:08.810Z,17.50
2023-03-22T13:35:57.998Z,18.42
2023-03-22T13:38:38.763Z,17.70
2023-03-22T13:41:20.839Z,21.38
2023-03-22T13:44:26.517Z,19.95
2023-03-22T13:46:58.406Z,17.63
2023-03-22T13:49:31.434Z,19.27
2023-03-22T13:52:02.262Z,18.02
2023-03-22T13:54:43.207Z,18.90
2023-03-22T13:57:37.900Z,18.02
2023-03-22T14:00:32.867Z,18.05
2023-03-22T14:03:18.350Z,16.20
2023-03-22T14:05:47.507Z,17.35
2023-03-22T14:08:28.617Z,15.23
2023-03-22T14:11:02.288Z,14.15
2023-03-22T14:13:35.195Z,14.63
2023-03-22T14:16:15.770Z,15.80
2023-03-22T14:21:19.185Z,15.25
